Ride Results

Caveside (22-02-2004)
Ride distance: 80.0 km

Outcomes - Caveside (22-02-2004)
Division No. of Entries Retired / DNE Completed Withdrawn Ineligible V/O Percentage Completed
HW 3 - 3 - - - 100.00%
MW 15 - 9 - - 6 60.00%
LW 12 - 9 1 - 2 75.00%
JN 4 - 3 - - 1 75.00%
Totals 34 - 24 1 - 9 70.59%
Results - Caveside (22-02-2004)
No. Rider Horse Place Time Leg Speeds Total
Km/Hr
H/R bpm
Heavyweight
32 Robin Tammens Bar K Beni 1 (BC) 6:39:00 12.3, 11.7 12.03 35, 40, 53 (Avg:46)
30 Peter McIntee Hayden 2 6:45:00 13.2, 10.7 11.85 41, 55, 59 (Avg:57)
31 Ged Nicklason Raja 3 7:05:00 12.3, 10.4 11.29 41, 45, 56 (Avg:50)
Middleweight
15 Gillian Grant Jen-A-Dale Zamara 1 (BC) 4:34:00 16.6, 18.4 17.52 35, 44, 45 (Avg:44)
13 Royce Martin Dunwingeri Baraak 2 6:52:00 12.0, 11.2 11.65 36, 39, 47 (Avg:43)
5 Helen Bowkett Jordanvale Snowbird 3 7:05:00 11.3, 11.2 11.29 34, 41, 45 (Avg:43)
9 Audrey Gardam Elphyn Flame 4 7:12:00 12.2, 10.1 11.11 38, 39, 50 (Avg:44)
11 Tania Jago River Gum Bounty 4 7:12:00 12.2, 10.1 11.11 42, 44, 58 (Avg:51)
12 Ossie Owen Franklin Raaj 6 7:44:00 11.9, 9.0 10.34 37, 45, 50 (Avg:47)
2 Martin Vesinger Elphyn Shukana 6 7:44:00 10.9, 9.7 10.34 38, 39, 43 (Avg:41)
14 Keren Wilde Lauralyn Sisette 6 7:44:00 9.5, 11.2 10.34 42, 38, 41 (Avg:39)
33 Debbie Leary Sabtah Navana 9 7:58:00 11.8, 8.6 10.04 29, 38, 46 (Avg:42)
17 Sonia Brown-Cordell Santashka Dances on Air Lame L2 0:00:00 17.5, 17.5 - 38, 43, 48 (Avg:45)
8 Veronica Munro Black Heart Hoss Lame L2 0:00:00 12.3, 11.3 - 34, 42, 40 (Avg:41)
3 Tony Purton Moonwitch Lame L2 0:00:00 16.7, 18.4 - 38, 42, 52 (Avg:47)
29 Gina Byard Smokie Lame L1 0:00:00 10.9 - 30, 45 (Avg:45)
20 Janine Parr Madame Pandora Metabolics L1 0:00:00 11.8 - 34, 45 (Avg:45)
16 Deanne Flanagan Spellbound Krisana Lame P/R 0:00:00 - - 40
Lightweight
10 Jill Lowth Shaylyn Farash 1 (BC) 4:59:00 16.7, 15.3 16.05 43, 44, 49 (Avg:46)
21 Jenny Keygan Elphyn Phoxx 2 6:02:00 13.4, 13.0 13.26 33, 39, 44 (Avg:41)
27 Kendal McIntee Maximus 3 6:45:00 13.2, 10.7 11.85 30, 46, 53 (Avg:49)
28 Nash Hodgman Santashka Senabi 4 6:53:00 11.8, 11.4 11.62 38, 43, 59 (Avg:51)
26 Yumi Wada Highland View Fly 4 6:53:00 12.0, 11.2 11.62 38, 39, 49 (Avg:44)
25 Narelle Sward Pallano Kisha 6 6:54:00 11.9, 11.2 11.59 40, 45, 59 (Avg:52)
18 Donna Griffiths Bellbird Malibu 7 7:05:00 13.1, 9.8 11.29 45, 47, 57 (Avg:52)
19 Vanessa Hoare Lauralyn Mishad 8 7:44:00 9.5, 11.2 10.34 35, 40, 47 (Avg:43)
1 Jane Stratton Prince Rillian 8 7:44:00 10.9, 9.7 10.34 50, 43, 50 (Avg:46)
34 Kayo Takahashi Bonnie Lame L2 0:00:00 12.0, 11.2 - 34, 46, 46 (Avg:46)
4 Jean Treloar Glenleigh Sapphire Lame L2 0:00:00 16.7, 15.3 - 42, 41, 48 (Avg:44)
22 Carly Stewart Malricia Nabowla Nook Nite Withdrawn L1 0:00:00 - - 36, 40 (Avg:40)
Junior
24 Toni Sheehan Yaldon Shakur 1 (BC) 6:44:00 13.7, 10.4 11.88 40, 46, 54 (Avg:50)
7 Jacob Burke Jemma 2 7:21:00 10.9, 10.8 10.88 36, 38, 41 (Avg:39)
6 Kathryn Scammell Underwood English Miss 2 7:21:00 10.9, 10.8 10.88 36, 46, 56 (Avg:51)
23 Aleesha Martin Albar Shakasha Lame L2 0:00:00 12.0, 11.2 - 32, 42, 54 (Avg:48)